sensor_id;sensor_type;location;lat;lon;timestamp;pressure;altitude;pressure_sealevel;temperature;humidity
64078;BME280;51039;49.696;10.808;2022-11-03T00:00:24;98930.66;;;2.91;97.04
64078;BME280;51039;49.696;10.808;2022-11-03T00:02:49;98930.50;;;2.92;97.36
64078;BME280;51039;49.696;10.808;2022-11-03T00:05:14;98926.81;;;2.95;97.43
64078;BME280;51039;49.696;10.808;2022-11-03T00:08:00;98922.50;;;3.04;97.42
64078;BME280;51039;49.696;10.808;2022-11-03T00:10:26;98923.75;;;3.00;97.21
64078;BME280;51039;49.696;10.808;2022-11-03T00:12:52;98921.56;;;2.95;97.22
64078;BME280;51039;49.696;10.808;2022-11-03T00:15:17;98918.28;;;2.93;97.39
64078;BME280;51039;49.696;10.808;2022-11-03T00:17:44;98919.22;;;2.92;97.17
64078;BME280;51039;49.696;10.808;2022-11-03T00:20:10;98922.13;;;2.89;97.25
64078;BME280;51039;49.696;10.808;2022-11-03T00:22:35;98913.72;;;2.95;97.63
64078;BME280;51039;49.696;10.808;2022-11-03T00:25:01;98908.03;;;3.09;97.93
64078;BME280;51039;49.696;10.808;2022-11-03T00:27:26;98905.41;;;3.09;97.33
64078;BME280;51039;49.696;10.808;2022-11-03T00:29:51;98902.81;;;3.00;96.72
64078;BME280;51039;49.696;10.808;2022-11-03T00:32:17;98905.88;;;2.95;96.99
64078;BME280;51039;49.696;10.808;2022-11-03T00:34:42;98899.81;;;2.94;96.93
64078;BME280;51039;49.696;10.808;2022-11-03T00:37:07;98901.44;;;2.95;97.00
64078;BME280;51039;49.696;10.808;2022-11-03T00:39:32;98908.19;;;2.98;97.34
64078;BME280;51039;49.696;10.808;2022-11-03T00:41:58;98909.44;;;2.94;97.26
64078;BME280;51039;49.696;10.808;2022-11-03T00:44:23;98905.44;;;2.90;97.26
64078;BME280;51039;49.696;10.808;2022-11-03T00:46:48;98897.19;;;2.85;97.34
64078;BME280;51039;49.696;10.808;2022-11-03T00:49:13;98894.31;;;2.88;97.24
64078;BME280;51039;49.696;10.808;2022-11-03T00:51:39;98895.00;;;2.80;97.44
64078;BME280;51039;49.696;10.808;2022-11-03T00:54:04;98898.06;;;2.75;97.63
64078;BME280;51039;49.696;10.808;2022-11-03T00:56:40;98889.66;;;2.72;98.04
64078;BME280;51039;49.696;10.808;2022-11-03T00:59:07;98891.44;;;2.81;97.91
64078;BME280;51039;49.696;10.808;2022-11-03T01:01:39;98888.28;;;2.78;97.59
64078;BME280;51039;49.696;10.808;2022-11-03T01:04:06;98878.75;;;2.86;98.02
64078;BME280;51039;49.696;10.808;2022-11-03T01:06:51;98875.81;;;2.99;98.77
64078;BME280;51039;49.696;10.808;2022-11-03T01:09:19;98868.66;;;3.01;98.34
64078;BME280;51039;49.696;10.808;2022-11-03T01:11:49;98862.59;;;3.01;97.88
64078;BME280;51039;49.696;10.808;2022-11-03T01:14:32;98870.19;;;2.94;97.56
64078;BME280;51039;49.696;10.808;2022-11-03T01:17:00;98864.28;;;2.92;97.72
64078;BME280;51039;49.696;10.808;2022-11-03T01:19:28;98864.94;;;2.94;97.72
64078;BME280;51039;49.696;10.808;2022-11-03T01:21:53;98851.06;;;2.93;97.64
64078;BME280;51039;49.696;10.808;2022-11-03T01:24:19;98853.66;;;2.93;97.22
64078;BME280;51039;49.696;10.808;2022-11-03T01:26:45;98848.59;;;2.82;97.29
64078;BME280;51039;49.696;10.808;2022-11-03T01:29:10;98851.75;;;2.86;97.53
64078;BME280;51039;49.696;10.808;2022-11-03T01:31:35;98848.47;;;2.84;97.38
64078;BME280;51039;49.696;10.808;2022-11-03T01:34:01;98849.41;;;2.83;97.49
64078;BME280;51039;49.696;10.808;2022-11-03T01:36:26;98845.97;;;2.82;97.32
64078;BME280;51039;49.696;10.808;2022-11-03T01:38:52;98836.91;;;2.77;96.90
64078;BME280;51039;49.696;10.808;2022-11-03T01:41:22;98830.31;;;2.72;97.45
64078;BME280;51039;49.696;10.808;2022-11-03T01:43:49;98824.97;;;2.64;97.41
64078;BME280;51039;49.696;10.808;2022-11-03T01:49:19;98817.69;;;2.58;97.55
64078;BME280;51039;49.696;10.808;2022-11-03T01:51:54;98841.06;;;2.60;97.62
64078;BME280;51039;49.696;10.808;2022-11-03T01:54:26;98828.66;;;2.62;97.36
64078;BME280;51039;49.696;10.808;2022-11-03T01:56:54;98817.00;;;2.56;97.24
64078;BME280;51039;49.696;10.808;2022-11-03T01:59:22;98813.84;;;2.43;97.20
64078;BME280;51039;49.696;10.808;2022-11-03T02:01:49;98817.53;;;2.40;97.45
64078;BME280;51039;49.696;10.808;2022-11-03T02:04:28;98800.34;;;2.38;97.78
64078;BME280;51039;49.696;10.808;2022-11-03T02:07:06;98800.59;;;2.44;97.71
64078;BME280;51039;49.696;10.808;2022-11-03T02:09:38;98797.47;;;2.41;97.27
64078;BME280;51039;49.696;10.808;2022-11-03T02:12:04;98790.03;;;2.46;97.37
64078;BME280;51039;49.696;10.808;2022-11-03T02:14:30;98788.22;;;2.46;97.34
64078;BME280;51039;49.696;10.808;2022-11-03T02:16:56;98784.38;;;2.50;97.34
64078;BME280;51039;49.696;10.808;2022-11-03T02:19:32;98785.19;;;2.61;98.36
64078;BME280;51039;49.696;10.808;2022-11-03T02:24:43;98768.78;;;2.68;98.54
64078;BME280;51039;49.696;10.808;2022-11-03T02:27:14;98773.75;;;2.71;98.51
64078;BME280;51039;49.696;10.808;2022-11-03T02:29:40;98768.34;;;2.73;98.28
64078;BME280;51039;49.696;10.808;2022-11-03T02:32:17;98758.72;;;2.73;98.65
64078;BME280;51039;49.696;10.808;2022-11-03T02:37:16;98754.03;;;2.67;98.33
64078;BME280;51039;49.696;10.808;2022-11-03T02:39:47;98755.97;;;2.65;97.91
64078;BME280;51039;49.696;10.808;2022-11-03T02:42:18;98751.63;;;2.56;97.65
64078;BME280;51039;49.696;10.808;2022-11-03T02:44:45;98746.56;;;2.35;97.11
64078;BME280;51039;49.696;10.808;2022-11-03T02:47:12;98740.91;;;2.40;97.67
64078;BME280;51039;49.696;10.808;2022-11-03T02:49:46;98746.56;;;2.35;97.61
64078;BME280;51039;49.696;10.808;2022-11-03T02:52:32;98746.13;;;2.40;97.95
64078;BME280;51039;49.696;10.808;2022-11-03T02:54:57;98738.28;;;2.40;97.55
64078;BME280;51039;49.696;10.808;2022-11-03T02:57:31;98738.16;;;2.41;97.72
64078;BME280;51039;49.696;10.808;2022-11-03T03:00:02;98735.41;;;2.43;97.48
64078;BME280;51039;49.696;10.808;2022-11-03T03:02:38;98732.41;;;2.28;97.12
64078;BME280;51039;49.696;10.808;2022-11-03T03:05:14;98729.94;;;2.26;97.57
64078;BME280;51039;49.696;10.808;2022-11-03T03:07:44;98728.97;;;2.27;97.59
64078;BME280;51039;49.696;10.808;2022-11-03T03:12:46;98710.72;;;2.18;97.49
64078;BME280;51039;49.696;10.808;2022-11-03T03:15:15;98710.38;;;2.30;98.84
64078;BME280;51039;49.696;10.808;2022-11-03T03:20:22;98707.78;;;2.30;97.99
64078;BME280;51039;49.696;10.808;2022-11-03T03:22:54;98702.84;;;2.27;100.00
64078;BME280;51039;49.696;10.808;2022-11-03T03:25:27;98695.81;;;2.28;99.25
64078;BME280;51039;49.696;10.808;2022-11-03T03:27:57;98696.94;;;2.25;100.00
64078;BME280;51039;49.696;10.808;2022-11-03T03:30:28;98690.53;;;2.47;100.00
64078;BME280;51039;49.696;10.808;2022-11-03T03:32:57;98683.38;;;2.49;100.00
64078;BME280;51039;49.696;10.808;2022-11-03T03:35:25;98685.25;;;2.57;100.00
64078;BME280;51039;49.696;10.808;2022-11-03T03:37:55;98679.53;;;2.44;100.00
64078;BME280;51039;49.696;10.808;2022-11-03T03:40:27;98678.41;;;2.56;100.00
64078;BME280;51039;49.696;10.808;2022-11-03T03:42:56;98676.28;;;2.60;100.00
64078;BME280;51039;49.696;10.808;2022-11-03T03:45:24;98680.81;;;2.67;100.00
64078;BME280;51039;49.696;10.808;2022-11-03T03:47:50;98674.81;;;2.57;100.00
64078;BME280;51039;49.696;10.808;2022-11-03T03:50:16;98676.06;;;2.53;100.00
64078;BME280;51039;49.696;10.808;2022-11-03T03:52:42;98664.25;;;2.49;100.00
64078;BME280;51039;49.696;10.808;2022-11-03T03:55:11;98666.84;;;2.49;100.00
64078;BME280;51039;49.696;10.808;2022-11-03T03:57:42;98668.78;;;2.47;100.00
64078;BME280;51039;49.696;10.808;2022-11-03T04:00:08;98665.09;;;2.40;99.90
64078;BME280;51039;49.696;10.808;2022-11-03T04:02:37;98670.72;;;2.45;100.00
64078;BME280;51039;49.696;10.808;2022-11-03T04:05:03;98674.28;;;2.44;100.00
64078;BME280;51039;49.696;10.808;2022-11-03T04:07:28;98666.31;;;2.45;100.00
64078;BME280;51039;49.696;10.808;2022-11-03T04:10:12;98660.28;;;2.45;100.00
64078;BME280;51039;49.696;10.808;2022-11-03T04:12:41;98663.03;;;2.43;99.71
64078;BME280;51039;49.696;10.808;2022-11-03T04:15:27;98655.63;;;2.29;99.19
64078;BME280;51039;49.696;10.808;2022-11-03T04:18:11;98666.09;;;2.29;99.12
64078;BME280;51039;49.696;10.808;2022-11-03T04:20:55;98660.59;;;2.32;99.09
64078;BME280;51039;49.696;10.808;2022-11-03T04:23:39;98656.72;;;2.36;99.41
64078;BME280;51039;49.696;10.808;2022-11-03T04:26:05;98652.59;;;2.33;98.99
64078;BME280;51039;49.696;10.808;2022-11-03T04:28:36;98658.09;;;2.30;99.69
64078;BME280;51039;49.696;10.808;2022-11-03T04:31:02;98661.41;;;2.32;99.73
64078;BME280;51039;49.696;10.808;2022-11-03T04:33:28;98648.88;;;2.36;100.00
64078;BME280;51039;49.696;10.808;2022-11-03T04:35:54;98652.03;;;2.40;99.76
64078;BME280;51039;49.696;10.808;2022-11-03T04:38:22;98652.97;;;2.39;99.24
64078;BME280;51039;49.696;10.808;2022-11-03T04:40:54;98651.06;;;2.41;99.38
64078;BME280;51039;49.696;10.808;2022-11-03T04:43:23;98646.94;;;2.38;99.06
64078;BME280;51039;49.696;10.808;2022-11-03T04:45:55;98630.59;;;2.26;99.04
64078;BME280;51039;49.696;10.808;2022-11-03T04:48:21;98632.78;;;2.31;99.92
64078;BME280;51039;49.696;10.808;2022-11-03T04:50:48;98635.09;;;2.44;100.00
64078;BME280;51039;49.696;10.808;2022-11-03T04:53:16;98635.47;;;2.49;100.00
64078;BME280;51039;49.696;10.808;2022-11-03T04:55:44;98637.13;;;2.50;99.89
64078;BME280;51039;49.696;10.808;2022-11-03T04:58:16;98626.38;;;2.53;100.00
64078;BME280;51039;49.696;10.808;2022-11-03T05:00:44;98624.13;;;2.68;100.00
64078;BME280;51039;49.696;10.808;2022-11-03T05:03:11;98629.56;;;2.74;100.00
64078;BME280;51039;49.696;10.808;2022-11-03T05:05:41;98621.81;;;2.83;100.00
64078;BME280;51039;49.696;10.808;2022-11-03T05:08:07;98608.97;;;2.89;100.00
64078;BME280;51039;49.696;10.808;2022-11-03T05:10:33;98603.00;;;2.97;100.00
64078;BME280;51039;49.696;10.808;2022-11-03T05:12:59;98599.41;;;2.98;100.00
64078;BME280;51039;49.696;10.808;2022-11-03T05:15:33;98608.22;;;2.97;100.00
64078;BME280;51039;49.696;10.808;2022-11-03T05:18:03;98602.00;;;2.98;100.00
64078;BME280;51039;49.696;10.808;2022-11-03T05:20:43;98601.44;;;3.04;100.00
64078;BME280;51039;49.696;10.808;2022-11-03T05:23:13;98587.22;;;3.07;100.00
64078;BME280;51039;49.696;10.808;2022-11-03T05:25:39;98586.78;;;3.11;100.00
64078;BME280;51039;49.696;10.808;2022-11-03T05:30:55;98564.88;;;3.12;100.00
64078;BME280;51039;49.696;10.808;2022-11-03T05:35:49;98569.44;;;3.10;100.00
64078;BME280;51039;49.696;10.808;2022-11-03T05:38:14;98567.78;;;3.09;100.00
64078;BME280;51039;49.696;10.808;2022-11-03T05:40:43;98557.31;;;3.09;100.00
64078;BME280;51039;49.696;10.808;2022-11-03T05:43:09;98554.47;;;3.03;100.00
64078;BME280;51039;49.696;10.808;2022-11-03T05:45:38;98549.47;;;3.09;100.00
64078;BME280;51039;49.696;10.808;2022-11-03T05:48:09;98557.97;;;3.11;100.00
64078;BME280;51039;49.696;10.808;2022-11-03T05:50:39;98546.41;;;3.14;100.00
64078;BME280;51039;49.696;10.808;2022-11-03T05:55:40;98539.00;;;3.09;100.00
64078;BME280;51039;49.696;10.808;2022-11-03T05:58:14;98543.03;;;3.04;100.00
64078;BME280;51039;49.696;10.808;2022-11-03T06:00:52;98541.69;;;3.00;100.00
64078;BME280;51039;49.696;10.808;2022-11-03T06:03:20;98545.81;;;3.02;100.00
64078;BME280;51039;49.696;10.808;2022-11-03T06:05:49;98548.25;;;3.04;100.00
64078;BME280;51039;49.696;10.808;2022-11-03T06:08:17;98537.66;;;3.05;100.00
64078;BME280;51039;49.696;10.808;2022-11-03T06:10:47;98546.31;;;3.06;100.00
64078;BME280;51039;49.696;10.808;2022-11-03T06:13:17;98553.88;;;3.09;100.00
64078;BME280;51039;49.696;10.808;2022-11-03T06:15:50;98555.06;;;3.14;100.00
64078;BME280;51039;49.696;10.808;2022-11-03T06:18:22;98552.53;;;3.23;100.00
64078;BME280;51039;49.696;10.808;2022-11-03T06:20:54;98549.28;;;3.29;100.00
64078;BME280;51039;49.696;10.808;2022-11-03T06:23:22;98554.22;;;3.32;100.00
64078;BME280;51039;49.696;10.808;2022-11-03T06:25:48;98554.44;;;3.39;100.00
64078;BME280;51039;49.696;10.808;2022-11-03T06:28:19;98549.06;;;3.40;100.00
64078;BME280;51039;49.696;10.808;2022-11-03T06:30:48;98551.38;;;3.43;100.00
64078;BME280;51039;49.696;10.808;2022-11-03T06:33:27;98552.56;;;3.49;100.00
64078;BME280;51039;49.696;10.808;2022-11-03T06:35:57;98549.03;;;3.58;100.00
64078;BME280;51039;49.696;10.808;2022-11-03T06:38:26;98553.34;;;3.67;100.00
64078;BME280;51039;49.696;10.808;2022-11-03T06:40:55;98544.72;;;3.75;100.00
64078;BME280;51039;49.696;10.808;2022-11-03T06:43:23;98551.78;;;3.83;100.00
64078;BME280;51039;49.696;10.808;2022-11-03T06:46:04;98553.59;;;3.82;100.00
64078;BME280;51039;49.696;10.808;2022-11-03T06:48:38;98555.00;;;3.95;100.00
64078;BME280;51039;49.696;10.808;2022-11-03T06:51:11;98549.78;;;4.03;100.00
64078;BME280;51039;49.696;10.808;2022-11-03T06:53:40;98550.50;;;4.13;100.00
64078;BME280;51039;49.696;10.808;2022-11-03T06:56:07;98542.97;;;4.18;100.00
64078;BME280;51039;49.696;10.808;2022-11-03T06:58:36;98544.44;;;4.12;100.00
64078;BME280;51039;49.696;10.808;2022-11-03T07:01:08;98541.03;;;4.20;100.00
64078;BME280;51039;49.696;10.808;2022-11-03T07:03:38;98534.34;;;4.34;99.96
64078;BME280;51039;49.696;10.808;2022-11-03T07:08:36;98532.31;;;4.62;98.62
64078;BME280;51039;49.696;10.808;2022-11-03T07:11:10;98531.66;;;4.68;97.78
64078;BME280;51039;49.696;10.808;2022-11-03T07:13:41;98531.38;;;4.80;97.51
64078;BME280;51039;49.696;10.808;2022-11-03T07:19:12;98523.66;;;4.78;97.85
64078;BME280;51039;49.696;10.808;2022-11-03T07:21:43;98518.56;;;4.77;97.39
64078;BME280;51039;49.696;10.808;2022-11-03T07:24:26;98503.16;;;4.82;97.46
64078;BME280;51039;49.696;10.808;2022-11-03T07:29:48;98503.34;;;5.13;95.62
64078;BME280;51039;49.696;10.808;2022-11-03T07:32:19;98500.88;;;5.20;95.78
64078;BME280;51039;49.696;10.808;2022-11-03T07:34:47;98496.41;;;5.37;94.90
64078;BME280;51039;49.696;10.808;2022-11-03T07:37:17;98486.72;;;5.54;94.10
64078;BME280;51039;49.696;10.808;2022-11-03T07:39:45;98486.94;;;5.92;93.05
64078;BME280;51039;49.696;10.808;2022-11-03T07:42:17;98480.03;;;6.07;91.41
64078;BME280;51039;49.696;10.808;2022-11-03T07:44:45;98479.00;;;6.16;91.53
64078;BME280;51039;49.696;10.808;2022-11-03T07:47:17;98472.22;;;6.22;91.16
64078;BME280;51039;49.696;10.808;2022-11-03T07:49:44;98472.41;;;6.75;89.52
64078;BME280;51039;49.696;10.808;2022-11-03T07:52:11;98465.44;;;7.43;88.05
64078;BME280;51039;49.696;10.808;2022-11-03T07:54:39;98457.53;;;8.39;84.73
64078;BME280;51039;49.696;10.808;2022-11-03T07:57:27;98452.69;;;9.00;80.72
64078;BME280;51039;49.696;10.808;2022-11-03T07:59:55;98442.06;;;9.50;78.71
64078;BME280;51039;49.696;10.808;2022-11-03T08:02:32;98445.56;;;9.86;77.09
64078;BME280;51039;49.696;10.808;2022-11-03T08:05:00;98444.81;;;9.63;78.69
64078;BME280;51039;49.696;10.808;2022-11-03T08:07:25;98439.22;;;9.45;81.13
64078;BME280;51039;49.696;10.808;2022-11-03T08:09:52;98436.94;;;10.93;76.54
64078;BME280;51039;49.696;10.808;2022-11-03T08:12:18;98435.19;;;11.92;74.77
64078;BME280;51039;49.696;10.808;2022-11-03T08:14:43;98434.19;;;11.80;72.67
64078;BME280;51039;49.696;10.808;2022-11-03T08:17:09;98431.47;;;12.00;73.26
64078;BME280;51039;49.696;10.808;2022-11-03T08:19:34;98426.41;;;11.92;73.38
64078;BME280;51039;49.696;10.808;2022-11-03T08:21:59;98428.22;;;11.98;72.78
64078;BME280;51039;49.696;10.808;2022-11-03T08:24:25;98421.38;;;12.61;70.50
64078;BME280;51039;49.696;10.808;2022-11-03T08:26:50;98409.53;;;12.25;71.05
64078;BME280;51039;49.696;10.808;2022-11-03T08:29:15;98403.75;;;12.34;71.31
64078;BME280;51039;49.696;10.808;2022-11-03T08:31:43;98404.00;;;12.26;71.26
64078;BME280;51039;49.696;10.808;2022-11-03T08:34:09;98395.72;;;12.41;70.08
64078;BME280;51039;49.696;10.808;2022-11-03T08:36:36;98395.38;;;12.94;69.74
64078;BME280;51039;49.696;10.808;2022-11-03T08:39:01;98381.56;;;13.29;68.05
64078;BME280;51039;49.696;10.808;2022-11-03T08:41:27;98375.94;;;13.63;66.11
64078;BME280;51039;49.696;10.808;2022-11-03T08:43:53;98371.31;;;13.08;67.13
64078;BME280;51039;49.696;10.808;2022-11-03T08:46:18;98368.47;;;12.52;69.97
64078;BME280;51039;49.696;10.808;2022-11-03T08:48:44;98366.56;;;13.16;69.64
64078;BME280;51039;49.696;10.808;2022-11-03T08:51:10;98350.81;;;13.15;68.50
64078;BME280;51039;49.696;10.808;2022-11-03T08:53:37;98342.88;;;13.70;66.69
64078;BME280;51039;49.696;10.808;2022-11-03T08:56:03;98335.44;;;13.91;64.91
64078;BME280;51039;49.696;10.808;2022-11-03T08:58:29;98336.59;;;13.65;64.63
64078;BME280;51039;49.696;10.808;2022-11-03T09:00:55;98329.88;;;13.00;66.90
64078;BME280;51039;49.696;10.808;2022-11-03T09:03:20;98331.22;;;13.28;66.52
64078;BME280;51039;49.696;10.808;2022-11-03T09:05:45;98331.97;;;13.72;65.52
64078;BME280;51039;49.696;10.808;2022-11-03T09:08:10;98321.69;;;14.24;64.19
64078;BME280;51039;49.696;10.808;2022-11-03T09:10:36;98328.63;;;13.95;64.11
64078;BME280;51039;49.696;10.808;2022-11-03T09:13:01;98324.75;;;14.51;62.45
64078;BME280;51039;49.696;10.808;2022-11-03T09:15:26;98323.19;;;15.21;62.35
64078;BME280;51039;49.696;10.808;2022-11-03T09:17:53;98318.59;;;14.51;61.37
64078;BME280;51039;49.696;10.808;2022-11-03T09:20:18;98310.22;;;14.36;64.50
64078;BME280;51039;49.696;10.808;2022-11-03T09:22:45;98294.50;;;13.73;63.61
64078;BME280;51039;49.696;10.808;2022-11-03T09:25:10;98276.78;;;13.67;64.61
64078;BME280;51039;49.696;10.808;2022-11-03T09:27:35;98276.22;;;13.77;64.60
64078;BME280;51039;49.696;10.808;2022-11-03T09:30:01;98269.53;;;13.19;66.62
64078;BME280;51039;49.696;10.808;2022-11-03T09:32:27;98274.28;;;13.35;67.30
64078;BME280;51039;49.696;10.808;2022-11-03T09:34:52;98261.59;;;13.38;66.24
64078;BME280;51039;49.696;10.808;2022-11-03T09:37:17;98255.63;;;12.99;67.91
64078;BME280;51039;49.696;10.808;2022-11-03T09:39:43;98260.50;;;13.20;67.39
64078;BME280;51039;49.696;10.808;2022-11-03T09:42:09;98262.84;;;13.35;68.15
64078;BME280;51039;49.696;10.808;2022-11-03T09:44:36;98265.28;;;13.55;66.00
64078;BME280;51039;49.696;10.808;2022-11-03T09:47:02;98268.19;;;13.65;66.67
64078;BME280;51039;49.696;10.808;2022-11-03T09:49:32;98262.59;;;13.85;64.61
64078;BME280;51039;49.696;10.808;2022-11-03T09:51:59;98272.16;;;13.44;66.21
64078;BME280;51039;49.696;10.808;2022-11-03T09:54:26;98265.03;;;13.57;65.46
64078;BME280;51039;49.696;10.808;2022-11-03T09:56:54;98259.09;;;13.73;65.44
64078;BME280;51039;49.696;10.808;2022-11-03T09:59:22;98249.00;;;14.05;63.24
64078;BME280;51039;49.696;10.808;2022-11-03T10:01:48;98258.44;;;14.43;63.20
64078;BME280;51039;49.696;10.808;2022-11-03T10:04:18;98246.34;;;14.83;61.58
64078;BME280;51039;49.696;10.808;2022-11-03T10:06:56;98239.38;;;14.82;61.78
64078;BME280;51039;49.696;10.808;2022-11-03T10:09:23;98237.25;;;14.37;63.73
64078;BME280;51039;49.696;10.808;2022-11-03T10:11:52;98224.50;;;14.39;62.70
64078;BME280;51039;49.696;10.808;2022-11-03T10:14:19;98207.44;;;14.04;63.38
64078;BME280;51039;49.696;10.808;2022-11-03T10:16:49;98195.91;;;13.68;65.13
64078;BME280;51039;49.696;10.808;2022-11-03T10:19:20;98192.22;;;13.93;64.55
64078;BME280;51039;49.696;10.808;2022-11-03T10:21:45;98183.84;;;14.55;63.62
64078;BME280;51039;49.696;10.808;2022-11-03T10:24:10;98190.09;;;14.84;62.68
64078;BME280;51039;49.696;10.808;2022-11-03T10:27:18;98176.63;;;14.20;63.48
64078;BME280;51039;49.696;10.808;2022-11-03T10:29:43;98174.69;;;14.16;64.22
64078;BME280;51039;49.696;10.808;2022-11-03T10:32:10;98176.78;;;14.37;63.62
64078;BME280;51039;49.696;10.808;2022-11-03T10:34:53;98180.94;;;14.09;64.76
64078;BME280;51039;49.696;10.808;2022-11-03T10:37:22;98190.00;;;14.56;63.67
64078;BME280;51039;49.696;10.808;2022-11-03T10:39:49;98191.19;;;15.12;63.47
64078;BME280;51039;49.696;10.808;2022-11-03T10:42:17;98183.66;;;15.21;62.35
64078;BME280;51039;49.696;10.808;2022-11-03T10:47:35;98172.59;;;15.58;61.79
64078;BME280;51039;49.696;10.808;2022-11-03T10:50:07;98162.59;;;15.36;62.70
64078;BME280;51039;49.696;10.808;2022-11-03T10:52:44;98155.84;;;15.05;63.61
64078;BME280;51039;49.696;10.808;2022-11-03T10:55:09;98161.84;;;14.60;64.36
64078;BME280;51039;49.696;10.808;2022-11-03T10:57:35;98152.34;;;14.64;64.47
64078;BME280;51039;49.696;10.808;2022-11-03T11:00:00;98148.25;;;15.25;64.10
64078;BME280;51039;49.696;10.808;2022-11-03T11:02:28;98142.84;;;15.08;63.84
64078;BME280;51039;49.696;10.808;2022-11-03T11:05:00;98136.84;;;14.89;65.27
64078;BME280;51039;49.696;10.808;2022-11-03T11:07:37;98144.47;;;15.38;64.06
64078;BME280;51039;49.696;10.808;2022-11-03T11:12:32;98130.06;;;14.70;65.25
64078;BME280;51039;49.696;10.808;2022-11-03T11:14:58;98125.31;;;14.84;65.25
64078;BME280;51039;49.696;10.808;2022-11-03T11:17:39;98119.94;;;15.24;64.09
64078;BME280;51039;49.696;10.808;2022-11-03T11:26:04;98109.28;;;16.21;62.50
64078;BME280;51039;49.696;10.808;2022-11-03T11:28:33;98109.06;;;15.88;62.76
64078;BME280;51039;49.696;10.808;2022-11-03T11:36:33;98085.56;;;16.07;62.58
64078;BME280;51039;49.696;10.808;2022-11-03T11:38:59;98068.06;;;15.66;62.97
64078;BME280;51039;49.696;10.808;2022-11-03T11:57:44;98028.59;;;15.85;64.79
64078;BME280;51039;49.696;10.808;2022-11-03T12:00:17;98025.53;;;15.76;64.22
64078;BME280;51039;49.696;10.808;2022-11-03T12:02:50;98031.28;;;16.07;63.47
64078;BME280;51039;49.696;10.808;2022-11-03T12:05:20;98031.25;;;15.51;66.05
64078;BME280;51039;49.696;10.808;2022-11-03T12:07:56;98023.59;;;15.38;64.92
64078;BME280;51039;49.696;10.808;2022-11-03T12:10:22;98015.09;;;15.58;65.07
64078;BME280;51039;49.696;10.808;2022-11-03T12:12:51;98008.69;;;15.76;64.80
64078;BME280;51039;49.696;10.808;2022-11-03T12:18:41;98000.28;;;15.33;65.50
64078;BME280;51039;49.696;10.808;2022-11-03T12:26:51;97961.69;;;15.24;66.03
64078;BME280;51039;49.696;10.808;2022-11-03T12:28:57;97956.78;;;15.16;66.14
64078;BME280;51039;49.696;10.808;2022-11-03T12:31:23;97945.94;;;15.05;67.03
64078;BME280;51039;49.696;10.808;2022-11-03T12:33:48;97940.84;;;15.04;67.48
64078;BME280;51039;49.696;10.808;2022-11-03T12:36:13;97942.41;;;15.17;67.42
64078;BME280;51039;49.696;10.808;2022-11-03T12:38:38;97930.97;;;15.04;67.41
64078;BME280;51039;49.696;10.808;2022-11-03T12:41:04;97923.13;;;14.81;67.87
64078;BME280;51039;49.696;10.808;2022-11-03T12:43:48;97924.25;;;14.85;67.66
64078;BME280;51039;49.696;10.808;2022-11-03T12:46:14;97919.81;;;14.90;68.79
64078;BME280;51039;49.696;10.808;2022-11-03T12:48:41;97919.81;;;14.90;69.45
64078;BME280;51039;49.696;10.808;2022-11-03T12:51:18;97937.13;;;14.88;68.65
64078;BME280;51039;49.696;10.808;2022-11-03T12:53:44;97939.47;;;15.01;68.08
64078;BME280;51039;49.696;10.808;2022-11-03T12:56:10;97937.44;;;14.91;68.81
64078;BME280;51039;49.696;10.808;2022-11-03T12:58:37;97923.78;;;15.05;68.06
64078;BME280;51039;49.696;10.808;2022-11-03T13:01:03;97909.31;;;14.84;68.18
64078;BME280;51039;49.696;10.808;2022-11-03T13:03:29;97905.13;;;14.88;68.28
64078;BME280;51039;49.696;10.808;2022-11-03T13:05:56;97890.31;;;14.97;67.96
64078;BME280;51039;49.696;10.808;2022-11-03T13:08:22;97888.72;;;14.96;68.46
64078;BME280;51039;49.696;10.808;2022-11-03T13:10:48;97877.94;;;14.91;68.14
64078;BME280;51039;49.696;10.808;2022-11-03T13:13:13;97873.34;;;14.86;68.42
64078;BME280;51039;49.696;10.808;2022-11-03T13:15:39;97879.50;;;14.87;69.75
64078;BME280;51039;49.696;10.808;2022-11-03T13:18:04;97872.56;;;14.86;69.50
64078;BME280;51039;49.696;10.808;2022-11-03T13:20:33;97864.06;;;14.89;69.26
64078;BME280;51039;49.696;10.808;2022-11-03T13:22:58;97859.59;;;14.78;69.68
64078;BME280;51039;49.696;10.808;2022-11-03T13:25:24;97848.94;;;14.78;69.04
64078;BME280;51039;49.696;10.808;2022-11-03T13:27:49;97865.91;;;14.71;69.86
64078;BME280;51039;49.696;10.808;2022-11-03T13:30:18;97871.00;;;14.73;70.17
64078;BME280;51039;49.696;10.808;2022-11-03T13:32:47;97860.00;;;14.69;70.22
64078;BME280;51039;49.696;10.808;2022-11-03T13:35:13;97861.81;;;14.81;69.82
64078;BME280;51039;49.696;10.808;2022-11-03T13:37:39;97861.16;;;14.45;71.66
64078;BME280;51039;49.696;10.808;2022-11-03T13:40:04;97843.50;;;14.56;71.17
64078;BME280;51039;49.696;10.808;2022-11-03T13:42:30;97834.00;;;14.60;70.76
64078;BME280;51039;49.696;10.808;2022-11-03T13:44:55;97830.41;;;14.54;70.61
64078;BME280;51039;49.696;10.808;2022-11-03T13:47:21;97830.81;;;14.46;70.91
64078;BME280;51039;49.696;10.808;2022-11-03T13:49:46;97830.22;;;14.27;72.00
64078;BME280;51039;49.696;10.808;2022-11-03T13:52:15;97828.13;;;14.29;72.32
64078;BME280;51039;49.696;10.808;2022-11-03T13:54:40;97822.63;;;14.19;72.02
64078;BME280;51039;49.696;10.808;2022-11-03T13:57:05;97816.97;;;14.15;72.58
64078;BME280;51039;49.696;10.808;2022-11-03T13:59:31;97812.34;;;14.10;72.23
64078;BME280;51039;49.696;10.808;2022-11-03T14:01:56;97802.56;;;13.99;73.02
64078;BME280;51039;49.696;10.808;2022-11-03T14:04:21;97796.00;;;13.90;73.13
64078;BME280;51039;49.696;10.808;2022-11-03T14:06:47;97785.00;;;13.86;73.55
64078;BME280;51039;49.696;10.808;2022-11-03T14:09:12;97779.41;;;13.71;74.33
64078;BME280;51039;49.696;10.808;2022-11-03T14:11:37;97784.63;;;13.66;74.52